Time;durP1;ratioP1;P1;durP2;ratioP2;P2;SDS_P1;SDS_P2;PMS_P1;PMS_P2;Temp;Humidity;BMP_temperature;BMP_pressure;BME280_temperature;BME280_humidity;BME280_pressure;Samples;Min_cycle;Max_cycle;Signal;HPM_P1;HPM_P2
2022/10/23 00:01:16;;;;;;;5.30;3.10;;;;;;;17.81;100.00;96550.47;4964872;28;20735;-43
2022/10/23 00:03:44;;;;;;;3.67;3.00;;;;;;;17.82;100.00;96544.94;4962611;28;20086;-44
2022/10/23 00:06:14;;;;;;;4.03;3.10;;;;;;;17.47;100.00;96534.03;4964807;28;20074;-50
2022/10/23 00:08:42;;;;;;;3.55;2.90;;;;;;;17.67;100.00;96534.28;4965164;28;20070;-41
2022/10/23 00:11:13;;;;;;;6.93;2.85;;;;;;;17.50;100.00;96539.00;4963936;28;20081;-42
2022/10/23 00:13:41;;;;;;;5.60;3.15;;;;;;;17.51;100.00;96547.81;4963224;28;20093;-43
2022/10/23 00:16:10;;;;;;;6.43;3.40;;;;;;;17.25;100.00;96538.47;4967232;28;20062;-40
2022/10/23 00:18:40;;;;;;;6.00;3.17;;;;;;;17.47;100.00;96544.69;4966043;28;20094;-45
2022/10/23 00:21:10;;;;;;;4.20;2.90;;;;;;;17.37;100.00;96540.66;4961062;28;20105;-47
2022/10/23 00:23:39;;;;;;;5.28;2.90;;;;;;;17.39;100.00;96541.31;4961598;28;20083;-40
2022/10/23 00:26:09;;;;;;;5.00;2.75;;;;;;;16.90;100.00;96537.38;4965004;28;20525;-43
2022/10/23 00:28:38;;;;;;;;;;;;;;;17.38;100.00;96548.50;4960027;28;20089;-43
2022/10/23 00:31:06;;;;;;;2.33;2.10;;;;;;;17.05;100.00;96551.50;4964904;28;19949;-43
2022/10/23 00:33:34;;;;;;;3.33;2.30;;;;;;;16.09;100.00;96560.13;4964825;28;20620;-42
2022/10/23 00:36:06;;;;;;;2.33;2.10;;;;;;;15.58;100.00;96551.75;4963676;28;20085;-44
2022/10/23 00:38:35;;;;;;;3.42;2.40;;;;;;;15.93;100.00;96549.59;4966549;28;20086;-47
2022/10/23 00:41:04;;;;;;;2.50;2.00;;;;;;;15.75;100.00;96550.69;4957920;28;20071;-47
2022/10/23 00:43:33;;;;;;;2.47;2.28;;;;;;;16.08;100.00;96550.50;4965260;28;20086;-44
2022/10/23 00:46:01;;;;;;;3.35;2.33;;;;;;;15.89;100.00;96552.59;4962943;28;20081;-42
2022/10/23 00:48:30;;;;;;;6.32;2.60;;;;;;;16.12;100.00;96552.63;4966530;28;20109;-45
2022/10/23 00:50:58;;;;;;;3.40;2.70;;;;;;;16.19;100.00;96557.25;4963353;28;20097;-46
2022/10/23 00:53:28;;;;;;;3.83;3.10;;;;;;;16.02;100.00;96559.19;4962287;28;20193;-43
2022/10/23 00:55:58;;;;;;;3.87;3.00;;;;;;;16.21;100.00;96555.22;4965447;28;20082;-48
2022/10/23 00:58:26;;;;;;;;;;;;;;;16.45;100.00;96554.19;4964857;28;20501;-44
2022/10/23 01:00:56;;;;;;;6.35;3.05;;;;;;;16.16;100.00;96549.63;4962879;28;19975;-48
2022/10/23 01:03:27;;;;;;;14.75;5.85;;;;;;;16.37;100.00;96553.25;4964377;28;20078;-44
2022/10/23 01:06:00;;;;;;;64.93;7.05;;;;;;;16.41;100.00;96552.91;4965005;28;20549;-44
2022/10/23 01:08:33;;;;;;;42.75;6.13;;;;;;;16.26;100.00;96556.34;4966085;28;20083;-45
2022/10/23 01:11:06;;;;;;;60.85;5.63;;;;;;;16.19;100.00;96547.44;4964094;28;20092;-44
2022/10/23 01:13:39;;;;;;;56.65;4.15;;;;;;;15.93;100.00;96544.28;4966038;28;20082;-43
2022/10/23 01:16:12;;;;;;;56.40;4.32;;;;;;;16.03;100.00;96540.38;4962521;28;20086;-45
2022/10/23 01:18:43;;;;;;;9.10;2.85;;;;;;;15.71;100.00;96538.75;4961114;28;20074;-44
2022/10/23 01:21:18;;;;;;;20.00;3.40;;;;;;;15.17;100.00;96539.47;4964320;28;20788;-46
2022/10/23 01:24:08;;;;;;;50.00;4.63;;;;;;;15.35;100.00;96533.94;4966133;28;20486;-43
2022/10/23 01:27:04;;;;;;;26.95;5.95;;;;;;;15.66;100.00;96528.66;4966648;28;20093;-44
2022/10/23 01:29:37;;;;;;;8.32;5.63;;;;;;;15.71;100.00;96521.97;4967693;28;20126;-44
2022/10/23 01:32:09;;;;;;;41.13;6.20;;;;;;;15.60;100.00;96520.50;4965941;28;20074;-47
2022/10/23 01:34:45;;;;;;;6.95;5.35;;;;;;;15.69;100.00;96527.50;4964017;28;20090;-43
2022/10/23 01:37:16;;;;;;;10.75;6.32;;;;;;;15.69;100.00;96510.69;4964631;28;20149;-44
2022/10/23 01:39:47;;;;;;;8.00;5.97;;;;;;;15.76;100.00;96511.63;4964293;28;20473;-50
2022/10/23 01:42:19;;;;;;;14.10;4.75;;;;;;;15.54;100.00;96518.56;4963916;28;20086;-43
2022/10/23 01:44:51;;;;;;;9.77;3.63;;;;;;;15.42;100.00;96521.59;4962582;28;20085;-50
2022/10/23 01:47:24;;;;;;;10.32;3.78;;;;;;;15.19;100.00;96520.69;4965000;28;20515;-45
2022/10/23 01:49:53;;;;;;;4.15;3.58;;;;;;;14.82;100.00;96523.97;4961787;28;20088;-50
2022/10/23 01:52:22;;;;;;;5.32;4.15;;;;;;;15.01;100.00;96522.75;4962998;28;20082;-47
2022/10/23 01:54:51;;;;;;;4.38;3.97;;;;;;;15.11;100.00;96515.44;4963173;28;20206;-45
2022/10/23 01:57:45;;;;;;;4.95;3.70;;;;;;;14.91;100.00;96523.78;4965023;28;20078;-46
2022/10/23 02:00:17;;;;;;;4.70;3.83;;;;;;;14.66;100.00;96514.22;4962807;28;20083;-42
2022/10/23 02:02:47;;;;;;;4.80;4.10;;;;;;;15.03;100.00;96515.44;4965614;28;20070;-42
2022/10/23 02:05:18;;;;;;;6.95;4.38;;;;;;;14.73;100.00;96525.81;4968111;28;20079;-43
2022/10/23 02:07:47;;;;;;;5.45;4.45;;;;;;;14.45;100.00;96522.66;4966297;28;20074;-42
2022/10/23 02:10:16;;;;;;;4.68;4.18;;;;;;;14.07;100.00;96522.31;4968815;28;20054;-45
2022/10/23 02:12:49;;;;;;;9.00;4.30;;;;;;;14.56;100.00;96514.41;4968610;28;20094;-52
2022/10/23 02:15:24;;;;;;;18.67;4.47;;;;;;;14.24;100.00;96518.66;4967601;28;20147;-44
2022/10/23 02:18:01;;;;;;;22.50;4.22;;;;;;;12.97;100.00;96515.34;4965859;28;20097;-46
2022/10/23 02:20:37;;;;;;;9.65;3.63;;;;;;;12.99;100.00;96508.91;4967063;28;20090;-45
2022/10/23 02:23:14;;;;;;;5.03;3.80;;;;;;;13.03;100.00;96490.91;4966617;28;20082;-44
2022/10/23 02:25:47;;;;;;;4.40;4.00;;;;;;;13.52;100.00;96485.78;4968575;28;20511;-43
2022/10/23 02:28:18;;;;;;;5.35;3.72;;;;;;;13.45;100.00;96485.59;4969587;28;20088;-46
2022/10/23 02:30:50;;;;;;;4.20;3.80;;;;;;;13.78;100.00;96480.38;4968079;28;20529;-48
2022/10/23 02:33:18;;;;;;;4.20;3.80;;;;;;;14.08;100.00;96478.09;4967632;28;20493;-42
2022/10/23 02:35:48;;;;;;;4.25;3.85;;;;;;;14.65;100.00;96478.84;4967761;28;20078;-45
2022/10/23 02:38:32;;;;;;;4.07;3.78;;;;;;;14.87;100.00;96477.31;4962311;28;20462;-47
2022/10/23 02:41:11;;;;;;;4.90;4.20;;;;;;;15.00;100.00;96479.41;4967363;28;20093;-45
2022/10/23 02:43:45;;;;;;;5.45;4.10;;;;;;;15.06;100.00;96477.91;4966938;28;20089;-47
2022/10/23 02:46:21;;;;;;;4.60;3.90;;;;;;;15.01;100.00;96475.78;4965585;28;20089;-43
2022/10/23 02:48:54;;;;;;;3.90;3.60;;;;;;;14.85;100.00;96465.22;4964346;28;20443;-44
2022/10/23 02:51:31;;;;;;;4.88;3.95;;;;;;;15.06;100.00;96456.66;4965706;28;20085;-45
2022/10/23 02:54:04;;;;;;;4.40;3.53;;;;;;;15.06;100.00;96456.66;4967741;28;20545;-49
2022/10/23 02:56:37;;;;;;;4.15;3.60;;;;;;;14.88;100.00;96464.88;4968632;28;21111;-45
2022/10/23 02:59:10;;;;;;;4.20;3.80;;;;;;;14.71;100.00;96466.75;4967758;28;20086;-44
2022/10/23 03:01:45;;;;;;;7.07;3.80;;;;;;;14.54;100.00;96468.59;4965039;28;20533;-46
2022/10/23 03:04:15;;;;;;;9.23;3.58;;;;;;;14.10;100.00;96468.13;4966604;28;20085;-45
2022/10/23 03:06:43;;;;;;;22.02;4.75;;;;;;;14.21;100.00;96460.69;4966647;28;20079;-47
2022/10/23 03:09:11;;;;;;;16.48;4.03;;;;;;;14.21;100.00;96463.34;4968390;28;20078;-45
2022/10/23 03:11:39;;;;;;;3.75;3.40;;;;;;;14.32;100.00;96462.16;4963311;28;20538;-44
2022/10/23 03:14:08;;;;;;;24.15;3.80;;;;;;;14.29;100.00;96465.13;4965672;28;20074;-46
2022/10/23 03:16:36;;;;;;;38.88;6.30;;;;;;;14.24;100.00;96464.81;4966625;28;20081;-47
2022/10/23 03:19:05;;;;;;;28.77;4.25;;;;;;;13.99;100.00;96462.16;4964908;28;20082;-50
2022/10/23 03:21:34;;;;;;;13.60;3.60;;;;;;;13.36;100.00;96459.28;4966413;28;20105;-47
2022/10/23 03:24:02;;;;;;;31.63;4.28;;;;;;;13.35;100.00;96462.91;4966926;28;20079;-46
2022/10/23 03:26:30;;;;;;;20.05;3.80;;;;;;;13.01;100.00;96461.13;4966921;28;20486;-46
2022/10/23 03:28:59;;;;;;;9.65;3.67;;;;;;;12.61;100.00;96464.41;4965092;28;20090;-50
2022/10/23 03:31:27;;;;;;;22.70;4.00;;;;;;;12.82;100.00;96460.38;4964336;28;20485;-46
2022/10/23 03:33:55;;;;;;;8.65;3.40;;;;;;;13.71;100.00;96459.00;4965033;28;20074;-45
2022/10/23 03:36:25;;;;;;;10.82;3.83;;;;;;;13.98;100.00;96451.75;4966257;28;20094;-48
2022/10/23 03:38:53;;;;;;;10.63;3.60;;;;;;;13.85;100.00;96459.34;4963819;28;20090;-48
2022/10/23 03:41:22;;;;;;;12.80;3.45;;;;;;;13.81;100.00;96450.91;4965813;28;20082;-51
2022/10/23 03:43:50;;;;;;;14.02;3.67;;;;;;;13.89;100.00;96450.88;4966671;28;20487;-48
2022/10/23 03:46:18;;;;;;;24.95;3.70;;;;;;;13.52;100.00;96446.91;4966306;28;20086;-47
2022/10/23 03:48:46;;;;;;;27.30;4.00;;;;;;;13.70;100.00;96445.94;4964078;28;20101;-40
2022/10/23 03:51:14;;;;;;;13.90;3.83;;;;;;;13.45;100.00;96447.69;4966379;28;20082;-45
2022/10/23 03:53:44;;;;;;;58.40;5.22;;;;;;;13.66;100.00;96452.53;4965244;28;20529;-46
2022/10/23 03:56:12;;;;;;;60.65;5.90;;;;;;;13.47;100.00;96443.06;4963973;28;20087;-49
2022/10/23 03:58:41;;;;;;;10.32;4.20;;;;;;;13.50;100.00;96448.88;4962707;28;20078;-44
2022/10/23 04:01:09;;;;;;;17.58;4.13;;;;;;;13.96;100.00;96451.88;4963949;28;20082;-45
2022/10/23 04:03:37;;;;;;;18.27;4.88;;;;;;;14.02;100.00;96459.19;4966638;28;20086;-46
2022/10/23 04:06:06;;;;;;;20.13;4.30;;;;;;;13.56;100.00;96457.16;4965535;28;20073;-42
2022/10/23 04:08:35;;;;;;;15.00;4.20;;;;;;;13.84;100.00;96463.00;4967807;28;20097;-44
2022/10/23 04:11:04;;;;;;;19.85;4.28;;;;;;;13.12;100.00;96452.88;4965539;28;20094;-44
2022/10/23 04:13:33;;;;;;;8.40;4.40;;;;;;;13.14;100.00;96450.06;4964894;28;20507;-42
2022/10/23 04:16:01;;;;;;;22.35;4.60;;;;;;;13.07;100.00;96452.53;4963838;28;20465;-43
2022/10/23 04:18:29;;;;;;;13.13;4.35;;;;;;;13.00;100.00;96447.03;4966364;28;20736;-43
2022/10/23 04:20:57;;;;;;;17.27;4.50;;;;;;;13.11;100.00;96445.09;4964619;28;20482;-52
2022/10/23 04:23:26;;;;;;;15.45;4.07;;;;;;;13.76;100.00;96442.59;4966057;28;20085;-43
2022/10/23 04:25:56;;;;;;;18.25;4.50;;;;;;;14.22;100.00;96440.28;4966453;28;20086;-50
2022/10/23 04:28:26;;;;;;;30.88;5.00;;;;;;;14.26;100.00;96444.25;4966203;28;20089;-46
2022/10/23 04:30:55;;;;;;;23.55;4.63;;;;;;;13.80;100.00;96449.25;4962667;28;20093;-42
2022/10/23 04:33:23;;;;;;;19.02;4.38;;;;;;;13.59;100.00;96449.69;4963801;28;20086;-42
2022/10/23 04:35:51;;;;;;;25.90;4.28;;;;;;;13.39;100.00;96445.72;4966118;28;20089;-42
2022/10/23 04:38:19;;;;;;;18.73;4.90;;;;;;;13.58;100.00;96447.22;4965553;28;20086;-44
2022/10/23 04:40:48;;;;;;;10.73;4.45;;;;;;;14.09;100.00;96440.78;4964573;28;20094;-40
2022/10/23 04:43:16;;;;;;;24.67;4.68;;;;;;;13.85;100.00;96448.75;4963654;28;20556;-48
2022/10/23 04:45:46;;;;;;;9.07;3.90;;;;;;;14.38;100.00;96444.72;4967404;28;20078;-43
2022/10/23 04:48:14;;;;;;;11.63;4.33;;;;;;;14.04;100.00;96450.22;4965433;28;20458;-45
2022/10/23 04:50:42;;;;;;;6.15;3.75;;;;;;;13.88;100.00;96446.59;4963245;28;20089;-43
2022/10/23 04:53:10;;;;;;;27.23;4.18;;;;;;;13.61;100.00;96445.06;4963752;28;20091;-41
2022/10/23 04:55:39;;;;;;;25.13;4.90;;;;;;;13.54;100.00;96449.38;4967219;28;20117;-43
2022/10/23 04:58:07;;;;;;;18.88;4.43;;;;;;;13.58;100.00;96445.41;4966112;28;20528;-43
2022/10/23 05:00:35;;;;;;;6.68;4.43;;;;;;;13.74;100.00;96444.59;4966538;28;20101;-42
2022/10/23 05:03:05;;;;;;;11.30;4.30;;;;;;;13.69;100.00;96437.13;4964311;28;20105;-45
2022/10/23 05:05:33;;;;;;;5.75;4.25;;;;;;;13.98;100.00;96435.81;4966187;28;20097;-44
2022/10/23 05:08:01;;;;;;;4.82;4.32;;;;;;;13.65;100.00;96442.94;4965480;28;20474;-41
2022/10/23 05:10:30;;;;;;;4.70;4.30;;;;;;;14.09;100.00;96439.97;4963264;28;20082;-44
2022/10/23 05:12:58;;;;;;;4.30;3.60;;;;;;;14.37;100.00;96433.28;4965460;28;20074;-46
2022/10/23 05:15:26;;;;;;;3.83;3.53;;;;;;;14.32;100.00;96435.63;4963158;28;20097;-43
2022/10/23 05:17:57;;;;;;;6.75;4.30;;;;;;;14.33;100.00;96431.16;4964785;28;20631;-43
2022/10/23 05:20:28;;;;;;;7.47;4.20;;;;;;;14.32;100.00;96421.53;4962958;28;20078;-48
2022/10/23 05:22:58;;;;;;;26.77;5.45;;;;;;;14.51;100.00;96415.06;4964421;28;20101;-50
2022/10/23 05:25:26;;;;;;;28.25;4.55;;;;;;;14.30;100.00;96408.44;4966642;28;20062;-44
2022/10/23 05:27:54;;;;;;;18.35;4.47;;;;;;;14.05;100.00;96406.81;4965307;28;20078;-46
2022/10/23 05:30:22;;;;;;;16.83;4.43;;;;;;;13.23;100.00;96409.38;4963785;28;20493;-47
2022/10/23 05:32:51;;;;;;;14.18;3.75;;;;;;;13.36;100.00;96404.50;4961582;28;21032;-52
2022/10/23 05:35:22;;;;;;;16.13;4.50;;;;;;;13.64;100.00;96402.34;4965109;28;20579;-44
2022/10/23 05:37:53;;;;;;;7.07;4.00;;;;;;;13.54;100.00;96405.16;4962779;28;20479;-46
2022/10/23 05:40:22;;;;;;;9.60;4.63;;;;;;;13.48;100.00;96407.63;4968240;28;20086;-49
2022/10/23 05:42:51;;;;;;;5.28;4.07;;;;;;;13.51;100.00;96405.50;4968519;28;20537;-45
2022/10/23 05:45:19;;;;;;;10.23;4.50;;;;;;;13.98;100.00;96412.78;4965364;28;20089;-48
2022/10/23 05:47:48;;;;;;;6.28;4.35;;;;;;;14.24;100.00;96420.53;4967638;28;20790;-45
2022/10/23 05:50:16;;;;;;;6.45;4.30;;;;;;;14.59;100.00;96412.34;4969031;28;20078;-45
2022/10/23 05:52:47;;;;;;;7.47;4.22;;;;;;;14.56;100.00;96405.59;4968850;28;20093;-47
2022/10/23 05:55:17;;;;;;;9.00;4.60;;;;;;;14.02;100.00;96406.16;4966898;28;20669;-48
2022/10/23 05:57:45;;;;;;;9.40;4.35;;;;;;;14.14;100.00;96406.66;4968215;28;20094;-43
2022/10/23 06:00:13;;;;;;;11.73;4.32;;;;;;;14.10;100.00;96417.75;4966291;28;20082;-50
2022/10/23 06:02:42;;;;;;;10.93;4.45;;;;;;;14.46;100.00;96424.31;4967793;28;20086;-51
2022/10/23 06:05:10;;;;;;;10.40;4.60;;;;;;;13.46;100.00;96426.34;4964639;28;20548;-45
2022/10/23 06:07:38;;;;;;;5.07;4.57;;;;;;;13.89;100.00;96423.56;4966341;28;20082;-46
2022/10/23 06:10:07;;;;;;;4.35;3.95;;;;;;;14.08;100.00;96428.53;4969078;28;20556;-44
2022/10/23 06:12:37;;;;;;;5.63;4.40;;;;;;;14.49;100.00;96417.84;4965118;28;21168;-43
2022/10/23 06:15:06;;;;;;;4.73;4.30;;;;;;;14.59;100.00;96420.31;4971199;28;20074;-43
2022/10/23 06:17:34;;;;;;;4.43;4.03;;;;;;;14.25;100.00;96426.69;4970166;28;20093;-50
2022/10/23 06:20:03;;;;;;;4.90;4.40;;;;;;;14.44;100.00;96420.16;4972572;28;20078;-47
2022/10/23 06:22:31;;;;;;;4.75;4.35;;;;;;;14.16;100.00;96422.38;4971626;28;20098;-43
2022/10/23 06:25:00;;;;;;;5.07;4.57;;;;;;;14.20;100.00;96419.22;4981784;28;20066;-43
2022/10/23 06:27:28;;;;;;;4.93;4.43;;;;;;;14.43;100.00;96431.78;4973342;28;20085;-44
2022/10/23 06:29:57;;;;;;;4.95;4.45;;;;;;;13.84;100.00;96428.53;4969793;28;20090;-44
2022/10/23 06:32:26;;;;;;;5.20;4.70;;;;;;;14.10;100.00;96431.00;4971613;28;20086;-43
2022/10/23 06:34:54;;;;;;;5.30;4.80;;;;;;;13.70;100.00;96433.50;4969862;28;20086;-44
2022/10/23 06:37:22;;;;;;;5.57;5.03;;;;;;;13.80;100.00;96422.75;4970853;28;20526;-43
2022/10/23 06:39:50;;;;;;;5.20;4.70;;;;;;;14.00;100.00;96423.22;4967967;28;20316;-44
2022/10/23 06:42:19;;;;;;;5.18;4.68;;;;;;;14.35;100.00;96437.09;4969963;28;20479;-44
2022/10/23 06:44:47;;;;;;;5.45;4.85;;;;;;;14.91;100.00;96430.00;4971031;28;20146;-45
2022/10/23 06:47:17;;;;;;;5.88;5.00;;;;;;;14.83;100.00;96433.53;4963946;28;20086;-43
2022/10/23 06:49:45;;;;;;;5.00;4.50;;;;;;;15.05;100.00;96433.78;4967186;28;20192;-44
2022/10/23 06:52:13;;;;;;;4.57;4.10;;;;;;;14.70;100.00;96435.91;4972100;28;20082;-43
2022/10/23 06:55:02;;;;;;;4.18;3.78;;;;;;;14.47;100.00;96430.44;4969582;28;20082;-46
2022/10/23 06:57:30;;;;;;;4.50;4.05;;;;;;;14.65;100.00;96422.31;4969142;28;20082;-43
2022/10/23 06:59:58;;;;;;;8.05;6.65;;;;;;;14.08;100.00;96431.19;4964976;28;20090;-45
2022/10/23 07:02:28;;;;;;;7.82;6.57;;;;;;;14.69;100.00;96427.13;4964579;28;20074;-43
2022/10/23 07:04:56;;;;;;;8.98;7.07;;;;;;;14.43;100.00;96426.47;4970029;28;20086;-51
2022/10/23 07:07:24;;;;;;;8.23;6.22;;;;;;;15.03;100.00;96430.44;4962949;28;20467;-44
2022/10/23 07:09:52;;;;;;;6.60;5.43;;;;;;;15.07;100.00;96418.47;4974582;28;20075;-44
2022/10/23 07:12:21;;;;;;;6.63;4.93;;;;;;;14.43;100.00;96419.34;4968828;28;20108;-43
2022/10/23 07:14:49;;;;;;;7.45;5.90;;;;;;;15.22;100.00;96419.41;4970997;28;20560;-45
2022/10/23 07:17:17;;;;;;;7.57;6.13;;;;;;;15.00;100.00;96417.50;4965956;28;20082;-43
2022/10/23 07:19:47;;;;;;;8.27;5.65;;;;;;;15.14;100.00;96419.44;4965544;28;20553;-43
2022/10/23 07:22:15;;;;;;;6.35;5.57;;;;;;;15.68;100.00;96418.66;4964972;28;20086;-45
2022/10/23 07:24:44;;;;;;;5.30;4.18;;;;;;;15.32;100.00;96416.53;4969125;28;20089;-47
2022/10/23 07:27:12;;;;;;;5.47;4.55;;;;;;;15.79;100.00;96411.06;4967745;28;20078;-46
2022/10/23 07:29:40;;;;;;;7.40;3.92;;;;;;;16.11;100.00;96415.31;4965644;28;20097;-43
2022/10/23 07:32:09;;;;;;;4.78;4.03;;;;;;;15.80;100.00;96423.38;4966079;28;20082;-50
2022/10/23 07:34:37;;;;;;;4.75;4.28;;;;;;;15.78;100.00;96422.72;4963752;28;20506;-50
2022/10/23 07:37:07;;;;;;;4.40;3.60;;;;;;;15.73;100.00;96424.28;4961495;28;20090;-45
2022/10/23 07:39:35;;;;;;;3.78;3.47;;;;;;;15.89;100.00;96424.94;4968180;28;20090;-45
2022/10/23 07:42:04;;;;;;;5.93;3.58;;;;;;;15.82;100.00;96410.72;4969603;28;20078;-47
2022/10/23 07:44:32;;;;;;;4.15;3.75;;;;;;;16.25;100.00;96405.69;4968700;28;20093;-45
2022/10/23 07:47:00;;;;;;;4.30;3.90;;;;;;;16.41;100.00;96404.69;4966706;28;20082;-47
2022/10/23 07:49:29;;;;;;;3.80;3.50;;;;;;;16.49;100.00;96411.78;4967184;28;20070;-43
2022/10/23 07:51:57;;;;;;;4.00;3.60;;;;;;;16.67;100.00;96406.09;4969884;28;20082;-45
2022/10/23 07:54:27;;;;;;;4.78;3.85;;;;;;;16.47;100.00;96417.28;4966290;28;20078;-42
2022/10/23 07:56:55;;;;;;;4.30;3.90;;;;;;;17.51;100.00;96402.00;4967176;28;20078;-47
2022/10/23 07:59:24;;;;;;;4.45;3.78;;;;;;;18.27;100.00;96404.97;4968055;28;21158;-42
2022/10/23 08:01:55;;;;;;;7.10;4.00;;;;;;;17.28;100.00;96412.03;4968101;28;20089;-42
2022/10/23 08:04:23;;;;;;;6.80;4.07;;;;;;;17.87;100.00;96411.00;4970912;28;20081;-44
2022/10/23 08:06:52;;;;;;;4.90;3.78;;;;;;;17.31;100.00;96404.47;4971155;28;20078;-43
2022/10/23 08:09:20;;;;;;;3.47;3.17;;;;;;;17.24;100.00;96403.56;4970672;28;20873;-42
2022/10/23 08:11:49;;;;;;;4.68;3.10;;;;;;;18.09;100.00;96398.47;4967212;28;20083;-47
2022/10/23 08:14:18;;;;;;;3.85;2.72;;;;;;;19.02;100.00;96404.41;4969849;28;20533;-46
2022/10/23 08:16:46;;;;;;;3.15;2.50;;;;;;;18.64;100.00;96408.28;4965417;28;20082;-44
2022/10/23 08:19:14;;;;;;;2.75;2.40;;;;;;;18.59;100.00;96397.38;4970133;28;20094;-46
2022/10/23 08:21:42;;;;;;;2.78;2.08;;;;;;;18.83;100.00;96404.13;4970522;28;20074;-45
2022/10/23 08:24:12;;;;;;;4.78;2.33;;;;;;;18.57;100.00;96409.28;4970462;28;20082;-45
2022/10/23 08:26:41;;;;;;;3.47;1.98;;;;;;;19.01;100.00;96406.25;4970104;28;20086;-44
2022/10/23 08:29:10;;;;;;;2.35;1.80;;;;;;;19.21;100.00;96395.66;4968082;28;20097;-46
2022/10/23 08:31:39;;;;;;;2.30;1.73;;;;;;;19.09;100.00;96392.72;4969517;28;20094;-47
2022/10/23 08:34:07;;;;;;;2.40;1.95;;;;;;;19.21;100.00;96396.47;4970904;28;20097;-46
2022/10/23 08:36:38;;;;;;;1.90;1.70;;;;;;;19.21;100.00;96392.97;4970349;28;20089;-50
2022/10/23 08:39:06;;;;;;;2.30;1.50;;;;;;;19.00;100.00;96390.44;4970420;28;20070;-44
2022/10/23 08:41:37;;;;;;;2.67;1.63;;;;;;;19.48;100.00;96390.38;4969789;28;20475;-45
2022/10/23 08:44:12;;;;;;;1.95;1.70;;;;;;;18.99;100.00;96389.59;4968156;28;20082;-44
2022/10/23 08:46:43;;;;;;;3.25;1.70;;;;;;;19.27;100.00;96386.00;4964095;28;20122;-44
2022/10/23 08:49:18;;;;;;;;;;;;;;;19.67;100.00;96385.09;4963690;28;20085;-43
2022/10/23 08:51:48;;;;;;;4.05;1.88;;;;;;;18.88;100.00;96396.31;4961989;28;19976;-46
2022/10/23 08:54:19;;;;;;;1.85;1.50;;;;;;;19.48;100.00;96395.72;4967113;28;20438;-45
2022/10/23 08:56:50;;;;;;;1.70;1.42;;;;;;;19.67;100.00;96386.94;4965020;28;20457;-48
2022/10/23 08:59:26;;;;;;;3.45;2.03;;;;;;;20.09;100.00;96390.28;4969603;28;20578;-44
2022/10/23 09:01:59;;;;;;;2.83;1.83;;;;;;;20.33;100.00;96383.47;4967091;28;20074;-43
2022/10/23 09:04:28;;;;;;;3.45;1.40;;;;;;;20.41;100.00;96379.75;4967768;28;20142;-48
2022/10/23 09:07:00;;;;;;;2.90;1.42;;;;;;;20.74;100.00;96371.66;4970175;28;20178;-44
2022/10/23 09:09:41;;;;;;;2.20;1.60;;;;;;;21.47;100.00;96358.81;4970416;28;20085;-48
2022/10/23 09:12:13;;;;;;;5.03;2.95;;;;;;;20.66;100.00;96362.00;4968462;28;20478;-51
2022/10/23 09:15:05;;;;;;;2.17;1.58;;;;;;;20.88;100.00;96367.09;4968960;28;20086;-43
2022/10/23 09:17:36;;;;;;;2.13;1.50;;;;;;;20.60;100.00;96358.31;4973665;28;20082;-44
2022/10/23 09:20:14;;;;;;;2.33;1.88;;;;;;;21.51;100.00;96351.16;4971536;28;20681;-48
2022/10/23 09:22:43;;;;;;;6.63;5.00;;;;;;;21.88;100.00;96348.59;4972449;28;20162;-43
2022/10/23 09:25:15;;;;;;;2.67;1.40;;;;;;;21.73;100.00;96336.31;4972439;28;20078;-51
2022/10/23 09:27:47;;;;;;;1.90;1.15;;;;;;;21.96;100.00;96338.44;4970864;28;20078;-40
2022/10/23 09:30:32;;;;;;;3.95;1.20;;;;;;;22.02;100.00;96342.94;4970546;28;20090;-45
2022/10/23 09:33:00;;;;;;;;;;;;;;;21.73;100.00;96340.88;4970842;28;20598;-44
2022/10/23 09:35:30;;;;;;;1.55;1.27;;;;;;;21.70;100.00;96338.63;4970270;28;19968;-43
2022/10/23 09:37:58;;;;;;;4.35;1.60;;;;;;;22.29;100.00;96342.69;4968397;28;20529;-45
2022/10/23 09:40:32;;;;;;;3.22;1.45;;;;;;;22.19;100.00;96339.69;4973196;28;20074;-45
2022/10/23 09:43:03;;;;;;;2.30;1.35;;;;;;;22.67;100.00;96331.75;4973527;28;20082;-47
2022/10/23 09:45:34;;;;;;;1.83;1.30;;;;;;;22.78;100.00;96330.22;4972805;28;20154;-44
2022/10/23 09:48:09;;;;;;;2.28;1.77;;;;;;;22.15;100.00;96338.50;4972772;28;20556;-44
2022/10/23 09:50:42;;;;;;;2.08;1.42;;;;;;;22.63;100.00;96335.94;4973022;28;20086;-44
2022/10/23 09:53:16;;;;;;;1.63;1.38;;;;;;;23.16;100.00;96331.84;4967184;28;20078;-43
2022/10/23 09:55:51;;;;;;;2.35;1.42;;;;;;;23.17;100.00;96323.53;4972120;28;20098;-46
2022/10/23 09:58:21;;;;;;;2.40;1.40;;;;;;;23.05;100.00;96332.59;4972927;28;20090;-45
2022/10/23 10:00:51;;;;;;;1.63;1.30;;;;;;;22.33;100.00;96340.38;4969245;28;20082;-44
2022/10/23 10:03:23;;;;;;;1.98;1.35;;;;;;;23.66;100.00;96328.84;4972587;28;21395;-44
2022/10/23 10:05:59;;;;;;;1.73;1.20;;;;;;;22.49;100.00;96331.75;4972872;28;20183;-47
2022/10/23 10:08:35;;;;;;;1.40;1.23;;;;;;;22.73;100.00;96325.50;4972103;28;20078;-50
2022/10/23 10:11:09;;;;;;;1.60;1.10;;;;;;;23.71;100.00;96315.56;4969654;28;20726;-45
2022/10/23 10:13:52;;;;;;;1.52;1.30;;;;;;;23.23;100.00;96316.44;4972831;28;20082;-43
2022/10/23 10:16:28;;;;;;;1.45;1.20;;;;;;;22.87;100.00;96323.47;4969254;28;20078;-48
2022/10/23 10:19:03;;;;;;;2.22;1.20;;;;;;;22.98;100.00;96311.16;4965489;28;20572;-48
2022/10/23 10:21:36;;;;;;;2.88;1.30;;;;;;;22.42;100.00;96309.50;4968778;28;20760;-47
2022/10/23 10:24:08;;;;;;;4.20;1.27;;;;;;;23.19;100.00;96302.63;4967180;28;20559;-45
2022/10/23 10:26:41;;;;;;;3.80;1.10;;;;;;;22.89;100.00;96302.56;4971108;28;20082;-43
2022/10/23 10:29:16;;;;;;;2.30;1.40;;;;;;;23.59;100.00;96312.78;4972181;28;20082;-44
2022/10/23 10:31:56;;;;;;;2.03;1.23;;;;;;;24.01;100.00;96306.56;4966624;28;20086;-44
2022/10/23 10:34:27;;;;;;;;;;;;;;;23.59;100.00;96309.28;4972692;28;20086;-47
2022/10/23 10:36:55;;;;;;;;;;;;;;;24.41;100.00;96304.03;4964519;28;19961;-48
2022/10/23 10:39:39;;;;;;;1.02;0.80;;;;;;;24.82;100.00;96294.94;4970655;28;20498;-49
2022/10/23 10:42:42;;;;;;;6.03;1.50;;;;;;;24.32;100.00;96305.41;4966599;28;20074;-49
2022/10/23 10:45:18;;;;;;;3.72;1.25;;;;;;;23.95;100.00;96310.19;4969988;28;20516;-44
2022/10/23 10:47:59;;;;;;;7.07;1.23;;;;;;;23.97;100.00;96294.63;4969447;28;20074;-45
2022/10/23 10:50:31;;;;;;;2.03;1.10;;;;;;;24.26;100.00;96293.69;4968307;28;20093;-43
2022/10/23 10:53:05;;;;;;;1.45;1.13;;;;;;;23.97;100.00;96281.97;4972033;28;20086;-45
2022/10/23 10:55:37;;;;;;;1.88;1.10;;;;;;;23.77;100.00;96287.69;4970645;28;20078;-50
2022/10/23 10:58:12;;;;;;;2.55;1.13;;;;;;;23.78;100.00;96288.50;4969462;28;20086;-44
2022/10/23 11:00:41;;;;;;;2.30;1.27;;;;;;;24.77;100.00;96278.63;4968433;28;20090;-45
2022/10/23 11:03:19;;;;;;;1.60;1.13;;;;;;;24.97;100.00;96267.41;4969213;28;20089;-45
2022/10/23 11:05:49;;;;;;;2.28;1.40;;;;;;;24.93;100.00;96244.69;4972046;28;20082;-42
2022/10/23 11:08:21;;;;;;;2.22;1.20;;;;;;;24.24;100.00;96246.47;4969515;28;20101;-42
2022/10/23 11:10:52;;;;;;;1.83;1.33;;;;;;;24.17;100.00;96247.41;4971196;28;20093;-47
2022/10/23 11:13:26;;;;;;;1.88;1.33;;;;;;;25.02;100.00;96243.25;4971804;28;20081;-43
2022/10/23 11:15:58;;;;;;;2.17;1.30;;;;;;;24.35;100.00;96237.53;4971722;28;20117;-42
2022/10/23 11:18:29;;;;;;;1.50;1.30;;;;;;;23.57;100.00;96234.16;4969235;28;20113;-45
2022/10/23 11:21:07;;;;;;;1.42;1.25;;;;;;;23.81;100.00;96228.78;4970205;28;20078;-46
2022/10/23 11:24:05;;;;;;;3.35;1.58;;;;;;;23.90;100.00;96235.47;4972077;28;20086;-45
2022/10/23 11:26:42;;;;;;;1.60;1.17;;;;;;;24.71;100.00;96217.56;4968291;28;20086;-46
2022/10/23 11:29:43;;;;;;;3.97;1.40;;;;;;;24.63;100.00;96217.94;4961656;28;20077;-43
2022/10/23 11:32:25;;;;;;;2.58;1.20;;;;;;;24.43;100.00;96212.13;4923224;28;20086;-46
2022/10/23 11:35:05;;;;;;;3.35;1.20;;;;;;;25.50;100.00;96214.97;4959087;28;20078;-43
2022/10/23 11:37:34;;;;;;;3.38;1.30;;;;;;;25.13;100.00;96209.22;4962838;28;20094;-44
2022/10/23 11:40:12;;;;;;;3.47;1.17;;;;;;;25.31;100.00;96208.97;4965871;28;20078;-43
2022/10/23 11:42:47;;;;;;;2.70;1.23;;;;;;;25.13;100.00;96209.22;4964851;28;20089;-44